sensor_id;sensor_type;location;lat;lon;timestamp;pressure;altitude;pressure_sealevel;temperature;humidity
6208;BME280;3137;51.550;7.060;2023-04-05T00:01:51;101939.72;;;2.93;59.16
6208;BME280;3137;51.550;7.060;2023-04-05T00:04:18;101946.72;;;2.96;59.32
6208;BME280;3137;51.550;7.060;2023-04-05T00:06:46;101928.34;;;2.90;59.74
6208;BME280;3137;51.550;7.060;2023-04-05T00:09:19;101932.75;;;2.89;59.27
6208;BME280;3137;51.550;7.060;2023-04-05T00:11:46;101931.91;;;2.87;59.49
6208;BME280;3137;51.550;7.060;2023-04-05T00:14:13;101934.75;;;2.78;59.55
6208;BME280;3137;51.550;7.060;2023-04-05T00:16:40;101934.75;;;2.78;59.78
6208;BME280;3137;51.550;7.060;2023-04-05T00:19:07;101931.19;;;2.79;59.38
6208;BME280;3137;51.550;7.060;2023-04-05T00:21:36;101931.28;;;2.76;59.50
6208;BME280;3137;51.550;7.060;2023-04-05T00:24:04;101934.75;;;2.78;59.66
6208;BME280;3137;51.550;7.060;2023-04-05T00:26:31;101926.16;;;2.67;59.62
6208;BME280;3137;51.550;7.060;2023-04-05T00:28:57;101925.31;;;2.63;60.05
6208;BME280;3137;51.550;7.060;2023-04-05T00:31:24;101926.13;;;2.68;60.41
6208;BME280;3137;51.550;7.060;2023-04-05T00:33:50;101924.47;;;2.63;60.19
6208;BME280;3137;51.550;7.060;2023-04-05T00:36:19;101928.91;;;2.61;60.64
6208;BME280;3137;51.550;7.060;2023-04-05T00:38:46;101923.66;;;2.59;60.12
6208;BME280;3137;51.550;7.060;2023-04-05T00:41:14;101923.69;;;2.56;60.69
6208;BME280;3137;51.550;7.060;2023-04-05T00:43:41;101917.63;;;2.52;60.89
6208;BME280;3137;51.550;7.060;2023-04-05T00:46:08;101903.63;;;2.47;60.88
6208;BME280;3137;51.550;7.060;2023-04-05T00:48:35;101898.53;;;2.37;60.62
6208;BME280;3137;51.550;7.060;2023-04-05T00:51:02;101906.38;;;2.41;60.48
6208;BME280;3137;51.550;7.060;2023-04-05T00:53:28;101906.41;;;2.40;60.67
6208;BME280;3137;51.550;7.060;2023-04-05T00:55:56;101900.44;;;2.28;60.67
6208;BME280;3137;51.550;7.060;2023-04-05T00:58:23;101903.09;;;2.28;60.88
6208;BME280;3137;51.550;7.060;2023-04-05T01:01:06;101906.72;;;2.23;61.02
6208;BME280;3137;51.550;7.060;2023-04-05T01:03:42;101907.75;;;2.16;61.72
6208;BME280;3137;51.550;7.060;2023-04-05T01:06:15;101906.91;;;2.12;61.88
6208;BME280;3137;51.550;7.060;2023-04-05T01:11:29;101904.34;;;2.07;61.70
6208;BME280;3137;51.550;7.060;2023-04-05T01:14:01;101909.69;;;2.03;62.77
6208;BME280;3137;51.550;7.060;2023-04-05T01:16:27;101913.34;;;1.97;62.78
6208;BME280;3137;51.550;7.060;2023-04-05T01:18:54;101908.19;;;1.88;62.66
6208;BME280;3137;51.550;7.060;2023-04-05T01:21:43;101899.53;;;1.80;63.09
6208;BME280;3137;51.550;7.060;2023-04-05T01:27:19;101897.00;;;1.74;62.95
6208;BME280;3137;51.550;7.060;2023-04-05T01:29:49;101894.44;;;1.67;63.69
6208;BME280;3137;51.550;7.060;2023-04-05T01:32:27;101890.19;;;1.57;64.33
6208;BME280;3137;51.550;7.060;2023-04-05T01:35:16;101884.91;;;1.59;64.64
6208;BME280;3137;51.550;7.060;2023-04-05T01:37:47;101886.69;;;1.57;65.29
6208;BME280;3137;51.550;7.060;2023-04-05T01:40:15;101887.63;;;1.54;66.22
6208;BME280;3137;51.550;7.060;2023-04-05T01:42:43;101883.22;;;1.53;66.94
6208;BME280;3137;51.550;7.060;2023-04-05T01:45:11;101888.50;;;1.53;67.40
6208;BME280;3137;51.550;7.060;2023-04-05T01:47:38;101878.94;;;1.46;67.25
6208;BME280;3137;51.550;7.060;2023-04-05T01:50:05;101882.53;;;1.42;67.70
6208;BME280;3137;51.550;7.060;2023-04-05T01:52:31;101883.53;;;1.33;67.74
6208;BME280;3137;51.550;7.060;2023-04-05T01:54:58;101875.59;;;1.35;67.90
6208;BME280;3137;51.550;7.060;2023-04-05T01:57:24;101879.16;;;1.32;68.39
6208;BME280;3137;51.550;7.060;2023-04-05T01:59:50;101872.19;;;1.28;67.63
6208;BME280;3137;51.550;7.060;2023-04-05T02:02:17;101865.06;;;1.32;67.49
6208;BME280;3137;51.550;7.060;2023-04-05T02:04:43;101862.53;;;1.27;67.56
6208;BME280;3137;51.550;7.060;2023-04-05T02:07:09;101875.75;;;1.24;67.95
6208;BME280;3137;51.550;7.060;2023-04-05T02:09:36;101876.66;;;1.21;67.13
6208;BME280;3137;51.550;7.060;2023-04-05T02:12:02;101869.72;;;1.14;67.35
6208;BME280;3137;51.550;7.060;2023-04-05T02:14:29;101870.66;;;1.12;66.83
6208;BME280;3137;51.550;7.060;2023-04-05T02:16:55;101870.81;;;1.01;68.22
6208;BME280;3137;51.550;7.060;2023-04-05T02:19:23;101867.38;;;0.94;68.01
6208;BME280;3137;51.550;7.060;2023-04-05T02:21:51;101866.53;;;0.91;68.93
6208;BME280;3137;51.550;7.060;2023-04-05T02:24:19;101859.53;;;0.88;68.51
6208;BME280;3137;51.550;7.060;2023-04-05T02:26:45;101863.09;;;0.85;69.58
6208;BME280;3137;51.550;7.060;2023-04-05T02:29:11;101856.19;;;0.75;69.91
6208;BME280;3137;51.550;7.060;2023-04-05T02:31:38;101838.66;;;0.73;70.15
6208;BME280;3137;51.550;7.060;2023-04-05T02:34:04;101856.25;;;0.72;70.10
6208;BME280;3137;51.550;7.060;2023-04-05T02:36:34;101862.53;;;0.60;72.81
6208;BME280;3137;51.550;7.060;2023-04-05T02:39:01;101865.13;;;0.65;71.03
6208;BME280;3137;51.550;7.060;2023-04-05T02:41:28;101860.75;;;0.62;71.71
6208;BME280;3137;51.550;7.060;2023-04-05T02:43:54;101864.31;;;0.60;72.44
6208;BME280;3137;51.550;7.060;2023-04-05T02:46:21;101867.88;;;0.54;72.19
6208;BME280;3137;51.550;7.060;2023-04-05T02:48:47;101856.47;;;0.52;72.36
6208;BME280;3137;51.550;7.060;2023-04-05T02:51:15;101854.75;;;0.50;73.11
6208;BME280;3137;51.550;7.060;2023-04-05T02:53:41;101855.69;;;0.46;73.24
6208;BME280;3137;51.550;7.060;2023-04-05T02:56:12;101853.13;;;0.41;72.61
6208;BME280;3137;51.550;7.060;2023-04-05T02:58:42;101859.34;;;0.34;73.55
6208;BME280;3137;51.550;7.060;2023-04-05T03:01:09;101861.97;;;0.32;73.54
6208;BME280;3137;51.550;7.060;2023-04-05T03:03:35;101862.00;;;0.31;74.10
6208;BME280;3137;51.550;7.060;2023-04-05T03:06:05;101850.63;;;0.27;73.30
6208;BME280;3137;51.550;7.060;2023-04-05T03:08:40;101856.75;;;0.26;73.83
6208;BME280;3137;51.550;7.060;2023-04-05T03:11:13;101855.94;;;0.21;74.89
6208;BME280;3137;51.550;7.060;2023-04-05T03:13:45;101853.34;;;0.19;74.41
6208;BME280;3137;51.550;7.060;2023-04-05T03:16:23;101848.13;;;0.15;74.60
6208;BME280;3137;51.550;7.060;2023-04-05T03:18:49;101847.31;;;0.10;74.58
6208;BME280;3137;51.550;7.060;2023-04-05T03:21:15;101841.16;;;0.09;73.82
6208;BME280;3137;51.550;7.060;2023-04-05T03:23:52;101845.59;;;0.06;75.46
6208;BME280;3137;51.550;7.060;2023-04-05T03:26:25;101845.63;;;-0.01;74.82
6208;BME280;3137;51.550;7.060;2023-04-05T03:28:52;101839.53;;;-0.06;75.63
6208;BME280;3137;51.550;7.060;2023-04-05T03:31:25;101843.97;;;-0.09;75.24
6208;BME280;3137;51.550;7.060;2023-04-05T03:33:57;101844.00;;;-0.11;74.54
6208;BME280;3137;51.550;7.060;2023-04-05T03:36:28;101852.88;;;-0.21;76.48
6208;BME280;3137;51.550;7.060;2023-04-05T03:39:13;101839.72;;;-0.23;76.74
6208;BME280;3137;51.550;7.060;2023-04-05T03:41:39;101840.53;;;-0.17;76.51
6208;BME280;3137;51.550;7.060;2023-04-05T03:44:07;101849.25;;;-0.12;75.52
6208;BME280;3137;51.550;7.060;2023-04-05T03:46:34;101849.28;;;-0.17;75.55
6208;BME280;3137;51.550;7.060;2023-04-05T03:49:05;101845.75;;;-0.11;76.14
6208;BME280;3137;51.550;7.060;2023-04-05T03:51:32;101837.84;;;-0.13;75.10
6208;BME280;3137;51.550;7.060;2023-04-05T03:53:58;101845.78;;;-0.14;75.20
6208;BME280;3137;51.550;7.060;2023-04-05T03:56:31;101837.91;;;-0.16;76.28
6208;BME280;3137;51.550;7.060;2023-04-05T03:59:03;101835.31;;;-0.19;76.04
6208;BME280;3137;51.550;7.060;2023-04-05T04:01:30;101835.25;;;-0.14;75.98
6208;BME280;3137;51.550;7.060;2023-04-05T04:03:56;101833.47;;;-0.11;76.08
6208;BME280;3137;51.550;7.060;2023-04-05T04:06:25;101833.47;;;-0.12;75.15
6208;BME280;3137;51.550;7.060;2023-04-05T04:08:52;101829.91;;;-0.08;74.84
6208;BME280;3137;51.550;7.060;2023-04-05T04:11:18;101834.38;;;-0.13;75.01
6208;BME280;3137;51.550;7.060;2023-04-05T04:13:45;101828.22;;;-0.15;76.32
6208;BME280;3137;51.550;7.060;2023-04-05T04:16:19;101829.13;;;-0.19;75.38
6208;BME280;3137;51.550;7.060;2023-04-05T04:19:12;101834.34;;;-0.12;75.75
6208;BME280;3137;51.550;7.060;2023-04-05T04:22:00;101830.81;;;-0.12;76.17
6208;BME280;3137;51.550;7.060;2023-04-05T04:24:48;101837.91;;;-0.16;75.52
6208;BME280;3137;51.550;7.060;2023-04-05T04:27:35;101837.84;;;-0.13;75.91
6208;BME280;3137;51.550;7.060;2023-04-05T04:30:14;101830.03;;;-0.20;75.34
6208;BME280;3137;51.550;7.060;2023-04-05T04:32:56;101830.09;;;-0.27;76.00
6208;BME280;3137;51.550;7.060;2023-04-05T04:35:42;101837.06;;;-0.24;75.33
6208;BME280;3137;51.550;7.060;2023-04-05T04:38:31;101830.94;;;-0.23;75.29
6208;BME280;3137;51.550;7.060;2023-04-05T04:41:24;101836.22;;;-0.23;75.49
6208;BME280;3137;51.550;7.060;2023-04-05T04:44:09;101835.31;;;-0.20;74.90
6208;BME280;3137;51.550;7.060;2023-04-05T04:46:58;101826.59;;;-0.27;74.73
6208;BME280;3137;51.550;7.060;2023-04-05T04:49:38;101828.34;;;-0.29;74.85
6208;BME280;3137;51.550;7.060;2023-04-05T04:52:06;101830.09;;;-0.27;74.22
6208;BME280;3137;51.550;7.060;2023-04-05T04:54:35;101833.63;;;-0.28;75.64
6208;BME280;3137;51.550;7.060;2023-04-05T04:57:02;101831.88;;;-0.30;75.79
6208;BME280;3137;51.550;7.060;2023-04-05T04:59:28;101829.25;;;-0.32;74.54
6208;BME280;3137;51.550;7.060;2023-04-05T05:01:55;101832.78;;;-0.34;75.10
6208;BME280;3137;51.550;7.060;2023-04-05T05:04:21;101839.00;;;-0.40;74.88
6208;BME280;3137;51.550;7.060;2023-04-05T05:06:52;101835.47;;;-0.39;75.80
6208;BME280;3137;51.550;7.060;2023-04-05T05:09:19;101841.63;;;-0.41;75.69
6208;BME280;3137;51.550;7.060;2023-04-05T05:11:51;101834.63;;;-0.46;75.81
6208;BME280;3137;51.550;7.060;2023-04-05T05:14:17;101832.94;;;-0.51;75.73
6208;BME280;3137;51.550;7.060;2023-04-05T05:16:43;101834.72;;;-0.55;74.82
6208;BME280;3137;51.550;7.060;2023-04-05T05:19:10;101830.31;;;-0.53;75.10
6208;BME280;3137;51.550;7.060;2023-04-05T05:21:42;101824.19;;;-0.53;75.36
6208;BME280;3137;51.550;7.060;2023-04-05T05:24:08;101836.47;;;-0.52;76.02
6208;BME280;3137;51.550;7.060;2023-04-05T05:26:35;101833.81;;;-0.49;76.30
6208;BME280;3137;51.550;7.060;2023-04-05T05:29:03;101832.91;;;-0.48;75.75
6208;BME280;3137;51.550;7.060;2023-04-05T05:31:32;101834.66;;;-0.47;76.25
6208;BME280;3137;51.550;7.060;2023-04-05T05:33:59;101835.50;;;-0.42;77.16
6208;BME280;3137;51.550;7.060;2023-04-05T05:36:25;101838.09;;;-0.37;77.57
6208;BME280;3137;51.550;7.060;2023-04-05T05:38:53;101834.53;;;-0.32;76.60
6208;BME280;3137;51.550;7.060;2023-04-05T05:41:19;101828.31;;;-0.23;76.52
6208;BME280;3137;51.550;7.060;2023-04-05T05:43:49;101830.03;;;-0.19;77.49
6208;BME280;3137;51.550;7.060;2023-04-05T05:46:15;101832.56;;;-0.08;77.11
6208;BME280;3137;51.550;7.060;2023-04-05T05:48:44;101838.69;;;-0.06;76.06
6208;BME280;3137;51.550;7.060;2023-04-05T05:51:10;101834.31;;;-0.07;77.04
6208;BME280;3137;51.550;7.060;2023-04-05T05:53:37;101835.16;;;-0.05;76.53
6208;BME280;3137;51.550;7.060;2023-04-05T05:56:05;101836.03;;;-0.05;75.50
6208;BME280;3137;51.550;7.060;2023-04-05T05:58:31;101846.50;;;0.02;75.70
6208;BME280;3137;51.550;7.060;2023-04-05T06:00:58;101832.41;;;0.06;75.20
6208;BME280;3137;51.550;7.060;2023-04-05T06:03:25;101834.16;;;0.08;74.85
6208;BME280;3137;51.550;7.060;2023-04-05T06:05:52;101834.06;;;0.17;74.90
6208;BME280;3137;51.550;7.060;2023-04-05T06:08:19;101833.09;;;0.25;75.86
6208;BME280;3137;51.550;7.060;2023-04-05T06:10:45;101834.72;;;0.35;75.37
6208;BME280;3137;51.550;7.060;2023-04-05T06:13:11;101838.94;;;0.51;76.24
6208;BME280;3137;51.550;7.060;2023-04-05T06:15:38;101835.22;;;0.64;76.06
6208;BME280;3137;51.550;7.060;2023-04-05T06:18:04;101826.97;;;0.91;76.51
6208;BME280;3137;51.550;7.060;2023-04-05T06:20:31;101833.81;;;1.05;75.54
6208;BME280;3137;51.550;7.060;2023-04-05T06:22:57;101824.69;;;1.28;75.32
6208;BME280;3137;51.550;7.060;2023-04-05T06:25:23;101827.06;;;1.43;74.34
6208;BME280;3137;51.550;7.060;2023-04-05T06:27:50;101820.63;;;1.60;74.10
6208;BME280;3137;51.550;7.060;2023-04-05T06:30:16;101830.91;;;1.78;72.46
6208;BME280;3137;51.550;7.060;2023-04-05T06:32:42;101827.13;;;1.91;73.00
6208;BME280;3137;51.550;7.060;2023-04-05T06:35:09;101821.56;;;2.08;72.34
6208;BME280;3137;51.550;7.060;2023-04-05T06:37:35;101829.94;;;2.30;70.99
6208;BME280;3137;51.550;7.060;2023-04-05T06:40:02;101826.28;;;2.38;70.41
6208;BME280;3137;51.550;7.060;2023-04-05T06:42:29;101829.53;;;2.50;69.62
6208;BME280;3137;51.550;7.060;2023-04-05T06:45:00;101825.00;;;2.55;68.33
6208;BME280;3137;51.550;7.060;2023-04-05T06:47:36;101825.59;;;2.70;69.04
6208;BME280;3137;51.550;7.060;2023-04-05T06:50:04;101820.09;;;2.79;67.39
6208;BME280;3137;51.550;7.060;2023-04-05T06:52:32;101829.53;;;2.92;67.42
6208;BME280;3137;51.550;7.060;2023-04-05T06:54:58;101829.25;;;3.05;67.05
6208;BME280;3137;51.550;7.060;2023-04-05T06:57:25;101824.59;;;3.14;66.44
6208;BME280;3137;51.550;7.060;2023-04-05T06:59:53;101822.72;;;3.19;65.53
6208;BME280;3137;51.550;7.060;2023-04-05T07:02:20;101828.66;;;3.29;65.05
6208;BME280;3137;51.550;7.060;2023-04-05T07:04:46;101836.19;;;3.46;65.56
6208;BME280;3137;51.550;7.060;2023-04-05T07:07:13;101827.09;;;3.58;64.32
6208;BME280;3137;51.550;7.060;2023-04-05T07:09:40;101831.31;;;3.67;64.84
6208;BME280;3137;51.550;7.060;2023-04-05T07:12:06;101829.91;;;3.86;62.90
6208;BME280;3137;51.550;7.060;2023-04-05T07:14:35;101831.31;;;3.99;63.88
6208;BME280;3137;51.550;7.060;2023-04-05T07:17:04;101828.28;;;4.13;62.70
6208;BME280;3137;51.550;7.060;2023-04-05T07:19:33;101821.78;;;4.25;61.94
6208;BME280;3137;51.550;7.060;2023-04-05T07:22:00;101821.44;;;4.37;61.07
6208;BME280;3137;51.550;7.060;2023-04-05T07:24:26;101820.22;;;4.49;61.44
6208;BME280;3137;51.550;7.060;2023-04-05T07:26:53;101819.09;;;4.58;60.81
6208;BME280;3137;51.550;7.060;2023-04-05T07:29:19;101821.38;;;4.70;60.36
6208;BME280;3137;51.550;7.060;2023-04-05T07:31:46;101820.16;;;4.82;58.95
6208;BME280;3137;51.550;7.060;2023-04-05T07:34:12;101820.50;;;4.99;58.92
6208;BME280;3137;51.550;7.060;2023-04-05T07:36:38;101819.28;;;5.09;58.70
6208;BME280;3137;51.550;7.060;2023-04-05T07:39:05;101821.50;;;5.23;57.29
6208;BME280;3137;51.550;7.060;2023-04-05T07:41:31;101823.84;;;5.34;57.27
6208;BME280;3137;51.550;7.060;2023-04-05T07:44:00;101812.03;;;5.43;56.24
6208;BME280;3137;51.550;7.060;2023-04-05T07:46:26;101818.31;;;5.40;55.50
6208;BME280;3137;51.550;7.060;2023-04-05T07:48:53;101815.06;;;5.59;55.89
6208;BME280;3137;51.550;7.060;2023-04-05T07:51:20;101813.72;;;5.72;55.31
6208;BME280;3137;51.550;7.060;2023-04-05T07:53:46;101816.84;;;5.85;54.74
6208;BME280;3137;51.550;7.060;2023-04-05T07:56:14;101811.16;;;5.95;54.59
6208;BME280;3137;51.550;7.060;2023-04-05T07:58:41;101813.78;;;5.97;52.82
6208;BME280;3137;51.550;7.060;2023-04-05T08:01:09;101812.31;;;6.13;52.83
6208;BME280;3137;51.550;7.060;2023-04-05T08:03:38;101817.19;;;6.26;51.69
6208;BME280;3137;51.550;7.060;2023-04-05T08:06:12;101819.44;;;6.36;51.68
6208;BME280;3137;51.550;7.060;2023-04-05T08:08:40;101819.22;;;6.43;50.77
6208;BME280;3137;51.550;7.060;2023-04-05T08:11:06;101815.00;;;6.60;50.76
6208;BME280;3137;51.550;7.060;2023-04-05T08:13:33;101809.63;;;6.62;50.39
6208;BME280;3137;51.550;7.060;2023-04-05T08:15:59;101819.94;;;6.71;50.08
6208;BME280;3137;51.550;7.060;2023-04-05T08:18:27;101812.03;;;6.92;49.88
6208;BME280;3137;51.550;7.060;2023-04-05T08:20:54;101805.44;;;7.02;48.44
6208;BME280;3137;51.550;7.060;2023-04-05T08:23:21;101813.75;;;7.16;48.16
6208;BME280;3137;51.550;7.060;2023-04-05T08:25:48;101805.94;;;7.12;47.66
6208;BME280;3137;51.550;7.060;2023-04-05T08:28:14;101815.53;;;7.16;45.40
6208;BME280;3137;51.550;7.060;2023-04-05T08:30:41;101812.38;;;7.28;46.05
6208;BME280;3137;51.550;7.060;2023-04-05T08:33:08;101815.78;;;7.32;45.27
6208;BME280;3137;51.550;7.060;2023-04-05T08:35:35;101802.81;;;7.44;45.38
6208;BME280;3137;51.550;7.060;2023-04-05T08:38:06;101801.72;;;7.50;44.64
6208;BME280;3137;51.550;7.060;2023-04-05T08:40:39;101808.38;;;7.60;44.36
6208;BME280;3137;51.550;7.060;2023-04-05T08:45:49;101808.28;;;7.84;42.30
6208;BME280;3137;51.550;7.060;2023-04-05T08:48:17;101803.88;;;8.03;44.28
6208;BME280;3137;51.550;7.060;2023-04-05T08:50:52;101795.47;;;8.13;43.50
6208;BME280;3137;51.550;7.060;2023-04-05T08:53:19;101799.09;;;8.30;43.87
6208;BME280;3137;51.550;7.060;2023-04-05T08:55:49;101795.78;;;8.25;42.48
6208;BME280;3137;51.550;7.060;2023-04-05T08:58:20;101801.56;;;8.35;41.29
6208;BME280;3137;51.550;7.060;2023-04-05T09:00:49;101806.38;;;8.47;39.89
6208;BME280;3137;51.550;7.060;2023-04-05T09:03:21;101801.50;;;8.57;39.43
6208;BME280;3137;51.550;7.060;2023-04-05T09:05:49;101807.06;;;8.90;39.81
6208;BME280;3137;51.550;7.060;2023-04-05T09:08:17;101796.44;;;9.08;38.05
6208;BME280;3137;51.550;7.060;2023-04-05T09:10:43;101798.53;;;9.20;38.97
6208;BME280;3137;51.550;7.060;2023-04-05T09:13:09;101795.66;;;9.06;38.17
6208;BME280;3137;51.550;7.060;2023-04-05T09:15:36;101786.69;;;9.43;37.71
6208;BME280;3137;51.550;7.060;2023-04-05T09:18:03;101789.69;;;9.54;37.24
6208;BME280;3137;51.550;7.060;2023-04-05T09:20:44;101785.44;;;9.50;37.07
6208;BME280;3137;51.550;7.060;2023-04-05T09:23:11;101789.44;;;9.76;37.83
6208;BME280;3137;51.550;7.060;2023-04-05T09:25:38;101785.38;;;9.87;38.28
6208;BME280;3137;51.550;7.060;2023-04-05T09:28:05;101789.31;;;9.79;39.98
6208;BME280;3137;51.550;7.060;2023-04-05T09:30:33;101783.97;;;9.79;39.49
6208;BME280;3137;51.550;7.060;2023-04-05T09:33:01;101785.44;;;9.85;40.85
6208;BME280;3137;51.550;7.060;2023-04-05T09:35:31;101782.16;;;9.80;39.64
6208;BME280;3137;51.550;7.060;2023-04-05T09:38:00;101787.81;;;9.91;40.01
6208;BME280;3137;51.550;7.060;2023-04-05T09:40:45;101783.47;;;9.89;36.48
6208;BME280;3137;51.550;7.060;2023-04-05T09:43:35;101784.53;;;10.19;36.38
6208;BME280;3137;51.550;7.060;2023-04-05T09:46:02;101785.94;;;10.44;34.94
6208;BME280;3137;51.550;7.060;2023-04-05T09:48:48;101785.94;;;10.44;35.18
6208;BME280;3137;51.550;7.060;2023-04-05T09:51:15;101790.97;;;10.50;33.58
6208;BME280;3137;51.550;7.060;2023-04-05T09:54:05;101789.50;;;10.45;34.28
6208;BME280;3137;51.550;7.060;2023-04-05T09:56:36;101789.66;;;10.24;34.59
6208;BME280;3137;51.550;7.060;2023-04-05T09:59:08;101787.19;;;10.54;34.36
6208;BME280;3137;51.550;7.060;2023-04-05T10:01:37;101780.28;;;10.66;34.36
6208;BME280;3137;51.550;7.060;2023-04-05T10:04:07;101774.50;;;10.74;33.36
6208;BME280;3137;51.550;7.060;2023-04-05T10:06:34;101779.00;;;10.73;33.84
6208;BME280;3137;51.550;7.060;2023-04-05T10:09:02;101776.28;;;10.89;36.85
6208;BME280;3137;51.550;7.060;2023-04-05T10:11:31;101769.47;;;10.83;33.82
6208;BME280;3137;51.550;7.060;2023-04-05T10:14:00;101774.94;;;10.98;36.12
6208;BME280;3137;51.550;7.060;2023-04-05T10:16:28;101773.28;;;10.95;35.95
6208;BME280;3137;51.550;7.060;2023-04-05T10:18:55;101766.81;;;10.99;35.76
6208;BME280;3137;51.550;7.060;2023-04-05T10:21:22;101759.97;;;10.94;36.47
6208;BME280;3137;51.550;7.060;2023-04-05T10:24:02;101757.16;;;10.48;34.27
6208;BME280;3137;51.550;7.060;2023-04-05T10:26:46;101757.78;;;10.37;35.02
6208;BME280;3137;51.550;7.060;2023-04-05T10:29:24;101751.94;;;10.29;34.38
6208;BME280;3137;51.550;7.060;2023-04-05T10:32:06;101752.09;;;10.26;33.51
6208;BME280;3137;51.550;7.060;2023-04-05T10:34:44;101749.88;;;10.34;33.98
6208;BME280;3137;51.550;7.060;2023-04-05T10:37:28;101755.94;;;10.37;33.99
6208;BME280;3137;51.550;7.060;2023-04-05T10:39:59;101750.22;;;10.61;34.34
6208;BME280;3137;51.550;7.060;2023-04-05T10:42:39;101751.50;;;10.85;33.10
6208;BME280;3137;51.550;7.060;2023-04-05T10:45:06;101737.50;;;10.64;31.82
6208;BME280;3137;51.550;7.060;2023-04-05T10:47:41;101735.69;;;10.81;33.41
6208;BME280;3137;51.550;7.060;2023-04-05T10:50:15;101733.00;;;10.97;34.66
6208;BME280;3137;51.550;7.060;2023-04-05T10:52:43;101732.88;;;11.14;34.19
6208;BME280;3137;51.550;7.060;2023-04-05T10:55:11;101726.75;;;11.12;32.28
6208;BME280;3137;51.550;7.060;2023-04-05T10:57:38;101720.59;;;11.10;34.58
6208;BME280;3137;51.550;7.060;2023-04-05T11:00:05;101721.06;;;10.86;34.67
6208;BME280;3137;51.550;7.060;2023-04-05T11:02:33;101716.50;;;10.73;34.93
6208;BME280;3137;51.550;7.060;2023-04-05T11:05:02;101720.72;;;10.93;32.76
6208;BME280;3137;51.550;7.060;2023-04-05T11:07:43;101710.66;;;11.12;32.99
6208;BME280;3137;51.550;7.060;2023-04-05T11:10:17;101716.31;;;11.38;33.25
6208;BME280;3137;51.550;7.060;2023-04-05T11:18:08;101720.13;;;11.34;30.37
6208;BME280;3137;51.550;7.060;2023-04-05T11:20:50;101722.34;;;11.41;30.28
6208;BME280;3137;51.550;7.060;2023-04-05T11:23:19;101718.06;;;11.53;33.04
6208;BME280;3137;51.550;7.060;2023-04-05T11:26:02;101715.38;;;11.53;31.17
6208;BME280;3137;51.550;7.060;2023-04-05T11:28:36;101716.28;;;11.68;32.70
6208;BME280;3137;51.550;7.060;2023-04-05T11:31:16;101711.19;;;11.94;31.53
6208;BME280;3137;51.550;7.060;2023-04-05T11:36:42;101702.84;;;11.54;30.15
6208;BME280;3137;51.550;7.060;2023-04-05T11:44:18;101704.06;;;11.78;32.40
6208;BME280;3137;51.550;7.060;2023-04-05T11:46:45;101695.09;;;11.78;31.72
6208;BME280;3137;51.550;7.060;2023-04-05T11:49:12;101692.53;;;11.76;36.54
6208;BME280;3137;51.550;7.060;2023-04-05T11:51:42;101699.63;;;11.77;34.65
6208;BME280;3137;51.550;7.060;2023-04-05T11:54:09;101690.25;;;11.84;32.23
6208;BME280;3137;51.550;7.060;2023-04-05T11:56:35;101687.22;;;12.05;30.14
6208;BME280;3137;51.550;7.060;2023-04-05T11:59:03;101687.38;;;12.02;31.30
6208;BME280;3137;51.550;7.060;2023-04-05T12:01:29;101679.94;;;12.07;31.16
6208;BME280;3137;51.550;7.060;2023-04-05T12:03:56;101686.38;;;12.19;29.07
6208;BME280;3137;51.550;7.060;2023-04-05T12:06:24;101675.56;;;12.33;29.94
6208;BME280;3137;51.550;7.060;2023-04-05T12:08:51;101673.47;;;12.38;31.42
6208;BME280;3137;51.550;7.060;2023-04-05T12:11:28;101670.19;;;12.47;28.77
6208;BME280;3137;51.550;7.060;2023-04-05T12:13:58;101668.53;;;12.59;29.12
6208;BME280;3137;51.550;7.060;2023-04-05T12:16:26;101670.66;;;12.54;28.58
6208;BME280;3137;51.550;7.060;2023-04-05T12:18:54;101668.38;;;12.48;27.90
6208;BME280;3137;51.550;7.060;2023-04-05T12:21:21;101662.19;;;12.19;28.29
6208;BME280;3137;51.550;7.060;2023-04-05T12:23:51;101661.50;;;12.15;29.83
6208;BME280;3137;51.550;7.060;2023-04-05T12:26:18;101661.41;;;12.31;32.65
6208;BME280;3137;51.550;7.060;2023-04-05T12:28:54;101649.59;;;12.33;32.50
6208;BME280;3137;51.550;7.060;2023-04-05T12:31:43;101653.69;;;12.39;30.45
6208;BME280;3137;51.550;7.060;2023-04-05T12:34:12;101658.97;;;12.55;30.46
6208;BME280;3137;51.550;7.060;2023-04-05T12:36:43;101658.56;;;12.47;29.51
6208;BME280;3137;51.550;7.060;2023-04-05T12:39:10;101646.50;;;12.40;33.78
6208;BME280;3137;51.550;7.060;2023-04-05T12:41:36;101642.41;;;12.34;35.24
6208;BME280;3137;51.550;7.060;2023-04-05T12:44:16;101641.38;;;12.49;32.71
6208;BME280;3137;51.550;7.060;2023-04-05T12:47:01;101639.13;;;12.43;33.66
6208;BME280;3137;51.550;7.060;2023-04-05T12:49:29;101634.47;;;12.60;32.92
6208;BME280;3137;51.550;7.060;2023-04-05T12:52:00;101637.00;;;12.75;29.48
6208;BME280;3137;51.550;7.060;2023-04-05T12:54:28;101627.59;;;12.95;30.77
6208;BME280;3137;51.550;7.060;2023-04-05T12:56:56;101622.84;;;12.59;34.09
6208;BME280;3137;51.550;7.060;2023-04-05T12:59:22;101630.56;;;12.51;32.59
6208;BME280;3137;51.550;7.060;2023-04-05T13:01:49;101625.91;;;12.67;32.40
6208;BME280;3137;51.550;7.060;2023-04-05T13:04:16;101624.69;;;12.86;32.17
6208;BME280;3137;51.550;7.060;2023-04-05T13:06:43;101621.59;;;12.65;29.50
6208;BME280;3137;51.550;7.060;2023-04-05T13:09:12;101610.97;;;12.49;29.68
6208;BME280;3137;51.550;7.060;2023-04-05T13:11:38;101615.91;;;12.69;32.10
6208;BME280;3137;51.550;7.060;2023-04-05T13:14:05;101618.09;;;12.90;31.87
6208;BME280;3137;51.550;7.060;2023-04-05T13:16:31;101611.34;;;12.97;32.21
6208;BME280;3137;51.550;7.060;2023-04-05T13:18:57;101613.94;;;12.86;29.98
6208;BME280;3137;51.550;7.060;2023-04-05T13:21:24;101610.16;;;12.88;28.96
6208;BME280;3137;51.550;7.060;2023-04-05T13:23:50;101600.59;;;12.57;28.49
6208;BME280;3137;51.550;7.060;2023-04-05T13:26:17;101593.91;;;12.50;29.66
6208;BME280;3137;51.550;7.060;2023-04-05T13:28:43;101599.56;;;12.72;28.36
6208;BME280;3137;51.550;7.060;2023-04-05T13:31:10;101595.50;;;12.80;30.07
6208;BME280;3137;51.550;7.060;2023-04-05T13:33:38;101585.72;;;12.79;28.47
6208;BME280;3137;51.550;7.060;2023-04-05T13:36:05;101578.00;;;12.99;29.59
6208;BME280;3137;51.550;7.060;2023-04-05T13:38:32;101581.06;;;13.20;28.86
6208;BME280;3137;51.550;7.060;2023-04-05T13:40:58;101579.59;;;13.42;29.37
6208;BME280;3137;51.550;7.060;2023-04-05T13:43:24;101579.59;;;13.29;28.88
6208;BME280;3137;51.550;7.060;2023-04-05T13:45:53;101570.63;;;13.16;30.58
6208;BME280;3137;51.550;7.060;2023-04-05T13:48:19;101572.16;;;13.33;30.38
6208;BME280;3137;51.550;7.060;2023-04-05T13:50:45;101567.97;;;13.42;27.64
6208;BME280;3137;51.550;7.060;2023-04-05T13:53:12;101568.41;;;13.48;29.61